createdAt,value
2019-02-15T00:01:28.299Z,9.87
2019-02-15T00:04:13.324Z,7.57
2019-02-15T00:06:58.127Z,8.57
2019-02-15T00:09:42.962Z,8.70
2019-02-15T00:12:27.745Z,8.10
2019-02-15T00:15:12.573Z,9.03
2019-02-15T00:17:59.392Z,9.23
2019-02-15T00:20:52.238Z,14.60
2019-02-15T00:23:36.937Z,8.83
2019-02-15T00:26:22.115Z,9.63
2019-02-15T00:29:06.844Z,9.47
2019-02-15T00:31:51.692Z,12.13
2019-02-15T00:34:36.473Z,8.93
2019-02-15T00:37:21.325Z,9.67
2019-02-15T00:40:06.278Z,8.67
2019-02-15T00:42:50.904Z,9.63
2019-02-15T00:45:46.592Z,9.47
2019-02-15T00:48:31.412Z,8.67
2019-02-15T00:51:18.100Z,9.93
2019-02-15T00:54:19.129Z,9.50
2019-02-15T00:57:24.204Z,10.20
2019-02-15T01:00:16.698Z,8.93
2019-02-15T01:03:23.269Z,8.70
2019-02-15T01:06:15.666Z,9.80
2019-02-15T01:09:14.476Z,10.67
2019-02-15T01:12:03.976Z,9.03
2019-02-15T01:14:51.879Z,8.90
2019-02-15T01:17:36.746Z,9.60
2019-02-15T01:20:24.541Z,10.10
2019-02-15T01:23:09.514Z,9.27
2019-02-15T01:25:56.201Z,11.20
2019-02-15T01:28:49.196Z,10.00
2019-02-15T01:31:35.789Z,9.80
2019-02-15T01:34:37.521Z,8.63
2019-02-15T01:37:32.980Z,8.90
2019-02-15T01:40:25.484Z,23.50
2019-02-15T01:43:29.042Z,9.43
2019-02-15T01:46:24.350Z,10.63
2019-02-15T01:49:09.170Z,10.23
2019-02-15T01:51:56.967Z,9.63
2019-02-15T01:54:41.805Z,9.70
2019-02-15T01:57:30.041Z,10.17
2019-02-15T02:00:18.989Z,11.10
2019-02-15T02:03:03.996Z,9.87
2019-02-15T02:05:48.928Z,9.37
2019-02-15T02:08:36.653Z,9.47
2019-02-15T02:11:21.498Z,10.43
2019-02-15T02:14:09.592Z,9.77
2019-02-15T02:16:54.380Z,10.23
2019-02-15T02:19:42.454Z,9.40
2019-02-15T02:22:27.318Z,10.20
2019-02-15T02:25:12.334Z,10.07
2019-02-15T02:27:57.308Z,10.30
2019-02-15T02:30:42.016Z,9.23
2019-02-15T02:33:26.996Z,9.70
2019-02-15T02:36:11.798Z,9.50
2019-02-15T02:38:56.695Z,9.97
2019-02-15T02:41:44.619Z,9.47
2019-02-15T02:44:29.453Z,10.17
2019-02-15T02:47:17.662Z,9.17
2019-02-15T02:50:06.151Z,9.03
2019-02-15T02:53:00.315Z,9.73
2019-02-15T02:55:48.234Z,9.47
2019-02-15T02:58:33.133Z,9.43
2019-02-15T03:01:24.281Z,9.13
2019-02-15T03:04:09.583Z,9.47
2019-02-15T03:06:54.117Z,9.87
2019-02-15T03:09:39.016Z,9.23
2019-02-15T03:12:23.767Z,9.27
2019-02-15T03:15:11.662Z,9.10
2019-02-15T03:17:56.633Z,8.87
2019-02-15T03:20:41.408Z,9.80
2019-02-15T03:23:26.347Z,9.53
2019-02-15T03:26:11.164Z,9.23
2019-02-15T03:28:55.995Z,8.57
2019-02-15T03:31:50.114Z,8.57
2019-02-15T03:34:36.425Z,9.30
2019-02-15T03:37:23.102Z,9.60
2019-02-15T03:40:09.840Z,9.20
2019-02-15T03:42:57.799Z,9.10
2019-02-15T03:45:43.533Z,8.60
2019-02-15T03:48:28.539Z,9.63
2019-02-15T03:51:13.388Z,9.33
2019-02-15T03:54:01.453Z,8.43
2019-02-15T03:56:46.365Z,9.00
2019-02-15T03:59:30.974Z,9.27
2019-02-15T04:02:31.281Z,9.27
2019-02-15T04:05:25.371Z,8.93
2019-02-15T04:08:13.423Z,8.27
2019-02-15T04:10:58.175Z,8.17
2019-02-15T04:13:55.532Z,8.53
2019-02-15T04:16:52.803Z,8.87
2019-02-15T04:19:40.794Z,8.47
2019-02-15T04:22:25.572Z,8.00
2019-02-15T04:25:10.716Z,8.10
2019-02-15T04:28:04.998Z,8.37
2019-02-15T04:30:53.152Z,8.67
2019-02-15T04:33:37.836Z,8.90
2019-02-15T04:36:22.840Z,7.87
2019-02-15T04:39:07.476Z,8.17
2019-02-15T04:41:55.510Z,8.20
2019-02-15T04:44:42.883Z,8.07
2019-02-15T04:47:27.347Z,8.97
2019-02-15T04:50:12.170Z,7.93
2019-02-15T04:52:56.923Z,8.07
2019-02-15T04:55:41.838Z,8.37
2019-02-15T04:58:26.724Z,7.77
2019-02-15T05:01:14.667Z,8.17
2019-02-15T05:03:59.641Z,9.07
2019-02-15T05:06:44.445Z,7.30
2019-02-15T05:09:32.333Z,8.73
2019-02-15T05:12:17.426Z,8.70
2019-02-15T05:15:02.908Z,7.90
2019-02-15T05:17:47.596Z,8.20
2019-02-15T05:20:32.491Z,7.73
2019-02-15T05:23:17.210Z,8.00
2019-02-15T05:26:02.212Z,8.07
2019-02-15T05:28:47.144Z,7.53
2019-02-15T05:31:32.094Z,7.47
2019-02-15T05:34:16.914Z,6.83
2019-02-15T05:37:01.921Z,7.27
2019-02-15T05:39:46.790Z,7.70
2019-02-15T05:42:46.973Z,7.90
2019-02-15T05:45:34.980Z,7.73
2019-02-15T05:48:22.809Z,7.80
2019-02-15T05:51:07.604Z,8.50
2019-02-15T05:54:01.752Z,7.00
2019-02-15T05:57:05.273Z,7.30
2019-02-15T05:59:50.021Z,6.60
2019-02-15T06:02:34.900Z,7.20
2019-02-15T06:05:35.067Z,7.20
2019-02-15T06:08:25.879Z,6.63
2019-02-15T06:11:10.641Z,7.23
2019-02-15T06:13:58.392Z,6.47
2019-02-15T06:16:43.144Z,6.73
2019-02-15T06:19:46.404Z,6.23
2019-02-15T06:22:40.580Z,6.50
2019-02-15T06:25:28.261Z,6.43
2019-02-15T06:28:13.085Z,6.47
2019-02-15T06:31:00.642Z,6.93
2019-02-15T06:33:45.583Z,7.03
2019-02-15T06:36:42.689Z,6.57
2019-02-15T06:39:30.705Z,6.47
2019-02-15T06:42:18.493Z,9.13
2019-02-15T06:45:04.746Z,6.77
2019-02-15T06:47:49.860Z,7.10
2019-02-15T06:50:37.640Z,7.07
2019-02-15T06:53:22.672Z,7.13
2019-02-15T06:56:07.328Z,6.00
2019-02-15T06:58:56.988Z,6.40
2019-02-15T07:01:52.577Z,6.43
2019-02-15T07:04:48.179Z,6.73
2019-02-15T07:07:32.819Z,6.43
2019-02-15T07:10:17.691Z,6.60
2019-02-15T07:13:02.609Z,7.10
2019-02-15T07:16:05.681Z,7.30
2019-02-15T07:19:09.203Z,7.20
2019-02-15T07:21:54.046Z,6.50
2019-02-15T07:24:41.764Z,7.00
2019-02-15T07:27:26.803Z,7.20
2019-02-15T07:30:12.634Z,7.03
2019-02-15T07:32:57.599Z,6.57
2019-02-15T07:35:42.367Z,6.57
2019-02-15T07:38:30.244Z,6.40
2019-02-15T07:41:15.237Z,6.23
2019-02-15T07:43:59.910Z,7.30
2019-02-15T07:46:51.023Z,5.87
2019-02-15T07:49:54.330Z,4.93
2019-02-15T07:52:54.664Z,5.83
2019-02-15T07:55:51.647Z,5.53
2019-02-15T07:58:39.640Z,5.60
2019-02-15T08:01:27.448Z,4.83
2019-02-15T08:04:27.877Z,5.40
2019-02-15T08:07:19.105Z,5.90
2019-02-15T08:10:10.375Z,5.57
2019-02-15T08:12:58.455Z,6.00
2019-02-15T08:15:51.333Z,5.93
2019-02-15T08:18:49.316Z,4.23
2019-02-15T08:21:34.258Z,5.40
2019-02-15T08:24:18.896Z,4.63
2019-02-15T08:27:22.324Z,5.17
2019-02-15T08:30:19.575Z,4.80
2019-02-15T08:33:04.729Z,5.00
2019-02-15T08:35:49.363Z,5.00
2019-02-15T08:38:37.239Z,5.10
2019-02-15T08:41:22.324Z,5.10
2019-02-15T08:44:07.256Z,4.70
2019-02-15T08:47:10.756Z,4.47
2019-02-15T08:49:55.436Z,4.43
2019-02-15T08:52:55.740Z,4.10
2019-02-15T08:55:47.021Z,4.43
2019-02-15T08:58:31.689Z,4.07
2019-02-15T09:01:19.484Z,4.33
2019-02-15T09:04:23.436Z,4.00
2019-02-15T09:07:08.328Z,4.20
2019-02-15T09:09:53.172Z,3.63
2019-02-15T09:12:56.833Z,3.90
2019-02-15T09:15:41.472Z,3.40
2019-02-15T09:18:26.521Z,4.30
2019-02-15T09:21:11.414Z,3.80
2019-02-15T09:23:56.252Z,3.77
2019-02-15T09:27:01.664Z,4.27
2019-02-15T09:29:55.781Z,3.97
2019-02-15T09:32:59.251Z,3.77
2019-02-15T09:35:59.411Z,3.80
2019-02-15T09:38:47.133Z,3.43
2019-02-15T09:41:32.285Z,5.33
2019-02-15T09:44:16.963Z,4.37
2019-02-15T09:47:05.018Z,3.50
2019-02-15T09:49:49.864Z,3.27
2019-02-15T09:52:34.814Z,3.60
2019-02-15T09:55:38.167Z,3.73
2019-02-15T09:58:22.917Z,3.67
2019-02-15T10:01:07.852Z,3.90
2019-02-15T10:03:56.088Z,3.50
2019-02-15T10:06:43.967Z,3.87
2019-02-15T10:09:28.700Z,3.67
2019-02-15T10:12:23.178Z,3.70
2019-02-15T10:15:09.597Z,3.40
2019-02-15T10:17:54.728Z,3.67
2019-02-15T10:20:39.547Z,4.10
2019-02-15T10:23:36.741Z,3.23
2019-02-15T10:26:40.154Z,3.70
2019-02-15T10:29:25.117Z,3.50
2019-02-15T10:32:28.900Z,3.47
2019-02-15T10:35:13.777Z,3.60
2019-02-15T10:38:01.628Z,4.30
2019-02-15T10:40:46.547Z,8.03
2019-02-15T10:43:31.531Z,3.23
2019-02-15T10:46:16.424Z,3.40
2019-02-15T10:49:04.479Z,3.10
2019-02-15T10:51:49.250Z,3.13
2019-02-15T10:54:46.976Z,3.37
2019-02-15T10:57:35.300Z,3.30
2019-02-15T11:00:39.610Z,2.80
2019-02-15T11:03:27.246Z,2.80
2019-02-15T11:06:12.324Z,3.10
2019-02-15T11:09:16.490Z,2.57
2019-02-15T11:12:13.973Z,2.67
2019-02-15T11:14:58.728Z,2.90
2019-02-15T11:17:46.631Z,2.80
2019-02-15T11:20:34.928Z,2.80
2019-02-15T11:23:22.810Z,2.83
2019-02-15T11:26:07.625Z,2.70
2019-02-15T11:29:07.886Z,2.63
2019-02-15T11:32:02.097Z,2.60
2019-02-15T11:35:11.603Z,2.83
2019-02-15T11:37:56.544Z,2.50
2019-02-15T11:40:44.467Z,2.87
2019-02-15T11:43:29.448Z,3.03
2019-02-15T11:46:14.370Z,2.70
2019-02-15T11:49:11.400Z,2.77
2019-02-15T11:51:56.315Z,2.70
2019-02-15T11:54:44.244Z,2.97
2019-02-15T11:57:32.229Z,2.57
2019-02-15T12:00:23.132Z,2.50
2019-02-15T12:03:08.311Z,2.23
2019-02-15T12:06:08.505Z,2.43
2019-02-15T12:09:12.103Z,2.30
2019-02-15T12:11:56.939Z,2.33
2019-02-15T12:15:00.717Z,2.30
2019-02-15T12:17:45.701Z,2.53
2019-02-15T12:20:30.565Z,2.53
2019-02-15T12:23:34.123Z,2.50
2019-02-15T12:26:31.216Z,2.70
2019-02-15T12:29:35.072Z,2.63
2019-02-15T12:32:20.023Z,2.60
2019-02-15T12:35:06.234Z,2.80
2019-02-15T12:37:50.886Z,2.50
2019-02-15T12:40:38.727Z,2.63
2019-02-15T12:43:23.583Z,2.50
2019-02-15T12:46:18.012Z,2.53
2019-02-15T12:49:02.731Z,2.60
2019-02-15T12:51:47.579Z,2.57
2019-02-15T12:54:35.376Z,2.80
2019-02-15T12:57:20.353Z,7.67
2019-02-15T13:00:08.820Z,3.57
2019-02-15T13:02:53.462Z,4.00
2019-02-15T13:05:38.316Z,3.30
2019-02-15T13:08:38.629Z,3.17
2019-02-15T13:11:42.557Z,3.23
2019-02-15T13:14:50.461Z,2.60
2019-02-15T13:17:35.015Z,3.13
2019-02-15T13:20:22.894Z,2.83
2019-02-15T13:23:07.760Z,2.63
2019-02-15T13:25:52.573Z,3.00
2019-02-15T13:28:37.433Z,3.17
2019-02-15T13:31:25.175Z,3.00
2019-02-15T13:34:10.191Z,3.10
2019-02-15T13:37:13.601Z,3.07
2019-02-15T13:40:08.338Z,2.60
2019-02-15T13:42:53.361Z,2.92
2019-02-15T13:45:38.007Z,3.10
2019-02-15T13:48:42.066Z,2.95
2019-02-15T13:51:26.668Z,3.12
2019-02-15T13:54:14.462Z,3.80
2019-02-15T13:56:59.461Z,3.45
2019-02-15T13:59:44.277Z,3.40
2019-02-15T14:02:32.177Z,3.08
2019-02-15T14:05:17.106Z,3.70
2019-02-15T14:08:01.867Z,3.70
2019-02-15T14:11:05.687Z,3.50
2019-02-15T14:13:50.788Z,5.35
2019-02-15T14:16:54.145Z,8.00
2019-02-15T14:19:48.448Z,5.70
2019-02-15T14:22:33.305Z,6.78
2019-02-15T14:25:21.421Z,5.30
2019-02-15T14:28:18.573Z,4.87
2019-02-15T14:31:12.863Z,5.75
2019-02-15T14:34:16.218Z,5.90
2019-02-15T14:37:02.472Z,5.67
2019-02-15T14:40:05.011Z,5.92
2019-02-15T14:42:49.733Z,4.33
2019-02-15T14:45:37.482Z,5.65
2019-02-15T14:48:22.196Z,3.60
2019-02-15T14:51:26.100Z,3.35
2019-02-15T14:54:10.943Z,6.60
2019-02-15T14:56:58.744Z,3.80
2019-02-15T14:59:43.818Z,6.65
2019-02-15T15:02:28.537Z,3.10
2019-02-15T15:05:32.379Z,3.12
2019-02-15T15:08:20.782Z,3.30
2019-02-15T15:11:08.292Z,2.62
2019-02-15T15:13:53.124Z,4.90
2019-02-15T15:16:56.658Z,4.10
2019-02-15T15:19:41.477Z,3.00
2019-02-15T15:22:45.343Z,4.27
2019-02-15T15:25:30.282Z,2.80
2019-02-15T15:28:14.906Z,2.50
2019-02-15T15:31:03.142Z,2.60
2019-02-15T15:33:48.080Z,2.73
2019-02-15T15:36:32.755Z,2.67
2019-02-15T15:39:17.606Z,2.80
2019-02-15T15:42:05.541Z,2.77
2019-02-15T15:44:50.299Z,2.70
2019-02-15T15:47:39.384Z,2.73
2019-02-15T15:50:26.827Z,2.80
2019-02-15T15:53:14.746Z,3.00
2019-02-15T15:56:00.041Z,3.13
2019-02-15T15:58:44.759Z,3.33
2019-02-15T16:01:48.309Z,3.77
2019-02-15T16:04:33.306Z,3.00
2019-02-15T16:07:30.566Z,2.80
2019-02-15T16:10:15.488Z,2.60
2019-02-15T16:13:03.201Z,6.00
2019-02-15T16:15:48.316Z,6.60
2019-02-15T16:18:35.057Z,3.87
2019-02-15T16:21:38.792Z,3.40
2019-02-15T16:24:23.842Z,3.63
2019-02-15T16:27:08.783Z,4.30
2019-02-15T16:29:55.596Z,5.10
2019-02-15T16:32:46.864Z,3.80
2019-02-15T16:35:37.954Z,3.80
2019-02-15T16:38:22.659Z,3.90
2019-02-15T16:41:07.575Z,3.60
2019-02-15T16:43:52.461Z,3.90
2019-02-15T16:46:49.715Z,3.63
2019-02-15T16:49:40.845Z,3.70
2019-02-15T16:52:35.086Z,3.80
2019-02-15T16:55:19.968Z,3.47
2019-02-15T16:58:04.989Z,3.37
2019-02-15T17:01:08.284Z,3.50
2019-02-15T17:04:05.617Z,3.87
2019-02-15T17:07:05.925Z,3.60
2019-02-15T17:09:50.708Z,3.60
2019-02-15T17:12:54.076Z,3.27
2019-02-15T17:15:58.451Z,3.50
2019-02-15T17:19:02.044Z,3.20
2019-02-15T17:21:46.941Z,3.90
2019-02-15T17:24:32.020Z,3.50
2019-02-15T17:27:29.177Z,3.40
2019-02-15T17:30:29.568Z,3.50
2019-02-15T17:33:14.424Z,3.70
2019-02-15T17:36:17.934Z,4.23
2019-02-15T17:39:12.075Z,3.50
2019-02-15T17:42:06.289Z,3.33
2019-02-15T17:45:05.876Z,3.60
2019-02-15T17:47:50.353Z,3.77
2019-02-15T17:50:35.406Z,4.27
2019-02-15T17:53:21.131Z,5.30
2019-02-15T17:56:24.708Z,4.63
2019-02-15T17:59:25.115Z,3.93
2019-02-15T18:02:10.048Z,4.13
2019-02-15T18:05:10.720Z,4.50
2019-02-15T18:07:55.465Z,4.30
2019-02-15T18:10:40.276Z,4.63
2019-02-15T18:13:25.099Z,4.33
2019-02-15T18:16:28.829Z,4.70
2019-02-15T18:19:15.707Z,4.60
2019-02-15T18:22:07.501Z,4.50
2019-02-15T18:24:55.467Z,4.17
2019-02-15T18:27:40.565Z,4.70
2019-02-15T18:30:25.374Z,4.60
2019-02-15T18:33:29.059Z,4.57
2019-02-15T18:36:13.940Z,4.47
2019-02-15T18:38:58.941Z,4.77
2019-02-15T18:42:02.595Z,6.10
2019-02-15T18:44:47.560Z,5.37
2019-02-15T18:47:32.282Z,6.47
2019-02-15T18:50:23.215Z,6.37
2019-02-15T18:53:08.061Z,5.57
2019-02-15T18:55:59.187Z,5.63
2019-02-15T18:58:59.515Z,5.70
2019-02-15T19:01:59.811Z,6.00
2019-02-15T19:04:51.061Z,5.60
2019-02-15T19:07:36.052Z,6.07
2019-02-15T19:10:39.355Z,6.63
2019-02-15T19:13:27.293Z,6.97
2019-02-15T19:16:12.248Z,7.57
2019-02-15T19:18:57.105Z,8.20
2019-02-15T19:22:01.076Z,7.27
2019-02-15T19:24:45.829Z,7.40
2019-02-15T19:27:30.584Z,7.73
2019-02-15T19:30:24.904Z,6.93
2019-02-15T19:33:12.701Z,6.70
2019-02-15T19:35:57.430Z,7.30
2019-02-15T19:39:01.276Z,6.70
2019-02-15T19:41:49.496Z,6.80
2019-02-15T19:44:34.227Z,7.70
2019-02-15T19:47:22.109Z,8.13
2019-02-15T19:50:09.696Z,9.47
2019-02-15T19:52:57.121Z,8.63
2019-02-15T19:55:54.609Z,8.37
2019-02-15T19:58:43.677Z,8.77
2019-02-15T20:01:26.735Z,8.70
2019-02-15T20:04:27.124Z,9.17
2019-02-15T20:07:12.080Z,9.13
2019-02-15T20:10:22.273Z,9.33
2019-02-15T20:13:19.657Z,9.23
2019-02-15T20:16:22.850Z,9.53
2019-02-15T20:19:23.147Z,9.53
2019-02-15T20:22:17.261Z,10.00
2019-02-15T20:25:17.706Z,9.77
2019-02-15T20:28:02.502Z,9.47
2019-02-15T20:31:02.993Z,11.23
2019-02-15T20:34:00.720Z,10.10
2019-02-15T20:36:48.230Z,10.90
2019-02-15T20:39:32.932Z,10.53
2019-02-15T20:42:20.764Z,9.93
2019-02-15T20:45:18.103Z,10.50
2019-02-15T20:48:02.489Z,9.47
2019-02-15T20:50:47.366Z,10.47
2019-02-15T20:53:32.242Z,10.13
2019-02-15T20:56:32.525Z,10.60
2019-02-15T20:59:20.405Z,10.63
2019-02-15T21:02:05.275Z,10.57
2019-02-15T21:05:02.535Z,12.23
2019-02-15T21:07:47.280Z,11.07
2019-02-15T21:10:35.287Z,11.97
2019-02-15T21:13:20.751Z,11.67
2019-02-15T21:16:21.273Z,10.90
2019-02-15T21:19:12.457Z,10.90
2019-02-15T21:21:57.432Z,10.90
2019-02-15T21:24:45.055Z,11.03
2019-02-15T21:27:29.982Z,11.50
2019-02-15T21:30:30.125Z,13.37
2019-02-15T21:33:30.536Z,19.90
2019-02-15T21:36:24.799Z,27.03
2019-02-15T21:39:16.035Z,20.23
2019-02-15T21:42:07.182Z,17.03
2019-02-15T21:44:52.107Z,22.53
2019-02-15T21:47:49.235Z,34.10
2019-02-15T21:50:52.430Z,23.13
2019-02-15T21:53:55.598Z,39.13
2019-02-15T21:56:58.993Z,18.47
2019-02-15T21:59:59.387Z,12.20
2019-02-15T22:02:47.163Z,10.67
2019-02-15T22:05:32.243Z,10.00
2019-02-15T22:08:16.997Z,16.97
2019-02-15T22:11:04.859Z,11.53
2019-02-15T22:13:49.833Z,11.63
2019-02-15T22:16:34.772Z,22.83
2019-02-15T22:19:19.797Z,16.17
2019-02-15T22:22:05.065Z,12.67
2019-02-15T22:24:50.175Z,10.53
2019-02-15T22:27:34.815Z,11.23
2019-02-15T22:30:19.689Z,10.50
2019-02-15T22:33:04.574Z,9.57
2019-02-15T22:36:08.423Z,10.30
2019-02-15T22:38:53.339Z,9.77
2019-02-15T22:41:41.537Z,9.90
2019-02-15T22:44:29.276Z,9.73
2019-02-15T22:47:29.545Z,9.47
2019-02-15T22:50:20.757Z,9.47
2019-02-15T22:53:24.033Z,9.63
2019-02-15T22:56:21.252Z,9.13
2019-02-15T22:59:09.291Z,9.17
2019-02-15T23:02:10.323Z,10.17
2019-02-15T23:04:57.704Z,14.90
2019-02-15T23:08:01.197Z,13.10
2019-02-15T23:10:48.693Z,9.40
2019-02-15T23:13:33.106Z,7.93
2019-02-15T23:16:36.627Z,8.80
2019-02-15T23:19:39.797Z,8.10
2019-02-15T23:22:43.178Z,8.07
2019-02-15T23:25:46.425Z,8.40
2019-02-15T23:28:49.852Z,8.17
2019-02-15T23:31:34.449Z,9.53
2019-02-15T23:34:19.193Z,8.50
2019-02-15T23:37:04.226Z,8.70
2019-02-15T23:39:49.333Z,8.33
2019-02-15T23:42:34.010Z,8.73
2019-02-15T23:45:18.686Z,8.47
2019-02-15T23:48:03.228Z,8.70
2019-02-15T23:50:54.865Z,8.10
2019-02-15T23:53:52.698Z,8.27
2019-02-15T23:56:37.165Z,7.97
2019-02-15T23:59:24.796Z,8.50
